sensor_id;sensor_type;location;lat;lon;timestamp;pressure;altitude;pressure_sealevel;temperature;humidity
12475;BME280;6302;42.624;23.334;2022-08-01T00:01:32;93247.69;;;19.01;91.37
12475;BME280;6302;42.624;23.334;2022-08-01T00:04:00;93245.13;;;18.97;91.10
12475;BME280;6302;42.624;23.334;2022-08-01T00:06:27;93232.31;;;18.92;90.86
12475;BME280;6302;42.624;23.334;2022-08-01T00:08:54;93213.03;;;18.75;90.03
12475;BME280;6302;42.624;23.334;2022-08-01T00:11:21;93242.91;;;18.96;90.42
12475;BME280;6302;42.624;23.334;2022-08-01T00:13:48;93239.00;;;18.97;89.54
12475;BME280;6302;42.624;23.334;2022-08-01T00:16:15;93240.34;;;19.01;88.70
12475;BME280;6302;42.624;23.334;2022-08-01T00:18:43;93242.59;;;18.94;87.42
12475;BME280;6302;42.624;23.334;2022-08-01T00:21:10;93242.28;;;18.92;84.29
12475;BME280;6302;42.624;23.334;2022-08-01T00:23:37;93233.34;;;18.95;84.58
12475;BME280;6302;42.624;23.334;2022-08-01T00:26:03;93242.91;;;18.96;82.09
12475;BME280;6302;42.624;23.334;2022-08-01T00:28:30;93239.91;;;18.94;82.58
12475;BME280;6302;42.624;23.334;2022-08-01T00:30:57;93246.03;;;18.94;81.66
12475;BME280;6302;42.624;23.334;2022-08-01T00:33:24;93240.66;;;18.94;81.57
12475;BME280;6302;42.624;23.334;2022-08-01T00:35:52;93237.53;;;18.96;81.22
12475;BME280;6302;42.624;23.334;2022-08-01T00:38:19;93233.81;;;18.93;81.58
12475;BME280;6302;42.624;23.334;2022-08-01T00:40:46;93196.59;;;18.64;80.82
12475;BME280;6302;42.624;23.334;2022-08-01T00:43:13;93234.53;;;18.94;79.31
12475;BME280;6302;42.624;23.334;2022-08-01T00:45:40;93232.91;;;18.96;78.34
12475;BME280;6302;42.624;23.334;2022-08-01T00:48:07;93230.06;;;19.00;78.94
12475;BME280;6302;42.624;23.334;2022-08-01T00:50:34;93234.84;;;18.96;78.49
12475;BME280;6302;42.624;23.334;2022-08-01T00:53:03;93229.16;;;18.94;77.81
12475;BME280;6302;42.624;23.334;2022-08-01T00:55:31;93240.94;;;18.87;76.99
12475;BME280;6302;42.624;23.334;2022-08-01T00:57:58;93242.00;;;18.90;76.67
12475;BME280;6302;42.624;23.334;2022-08-01T01:00:26;93240.06;;;18.90;77.36
12475;BME280;6302;42.624;23.334;2022-08-01T01:02:53;93244.69;;;18.90;77.47
12475;BME280;6302;42.624;23.334;2022-08-01T01:05:20;93233.06;;;18.93;78.42
12475;BME280;6302;42.624;23.334;2022-08-01T01:07:52;93229.91;;;18.94;78.53
12475;BME280;6302;42.624;23.334;2022-08-01T01:10:25;93225.88;;;18.90;79.64
12475;BME280;6302;42.624;23.334;2022-08-01T01:13:01;93219.91;;;18.86;79.66
12475;BME280;6302;42.624;23.334;2022-08-01T01:15:32;93214.25;;;18.83;80.47
12475;BME280;6302;42.624;23.334;2022-08-01T01:18:03;93206.16;;;18.74;81.21
12475;BME280;6302;42.624;23.334;2022-08-01T01:20:34;93208.69;;;18.69;81.48
12475;BME280;6302;42.624;23.334;2022-08-01T01:23:12;93214.78;;;18.60;82.27
12475;BME280;6302;42.624;23.334;2022-08-01T01:26:04;93217.19;;;18.58;81.57
12475;BME280;6302;42.624;23.334;2022-08-01T01:31:14;93186.97;;;18.36;81.04
12475;BME280;6302;42.624;23.334;2022-08-01T01:33:43;93205.53;;;18.52;80.04
12475;BME280;6302;42.624;23.334;2022-08-01T01:36:11;93202.53;;;18.50;78.08
12475;BME280;6302;42.624;23.334;2022-08-01T01:38:42;93193.91;;;18.46;75.39
12475;BME280;6302;42.624;23.334;2022-08-01T01:41:11;93191.81;;;18.50;72.11
12475;BME280;6302;42.624;23.334;2022-08-01T01:43:40;93193.03;;;18.58;71.79
12475;BME280;6302;42.624;23.334;2022-08-01T01:46:09;93185.88;;;18.64;70.43
12475;BME280;6302;42.624;23.334;2022-08-01T01:48:38;93187.81;;;18.64;70.01
12475;BME280;6302;42.624;23.334;2022-08-01T01:51:06;93189.31;;;18.65;69.86
12475;BME280;6302;42.624;23.334;2022-08-01T01:53:34;93186.31;;;18.63;69.92
12475;BME280;6302;42.624;23.334;2022-08-01T01:56:03;93183.19;;;18.64;69.88
12475;BME280;6302;42.624;23.334;2022-08-01T01:58:32;93185.56;;;18.62;69.56
12475;BME280;6302;42.624;23.334;2022-08-01T02:01:01;93197.03;;;18.54;71.03
12475;BME280;6302;42.624;23.334;2022-08-01T02:03:29;93198.53;;;18.55;70.41
12475;BME280;6302;42.624;23.334;2022-08-01T02:05:59;93192.69;;;18.47;70.73
12475;BME280;6302;42.624;23.334;2022-08-01T02:08:29;93195.66;;;18.49;72.18
12475;BME280;6302;42.624;23.334;2022-08-01T02:10:59;93190.94;;;18.53;71.08
12475;BME280;6302;42.624;23.334;2022-08-01T02:13:50;93192.69;;;18.47;71.05
12475;BME280;6302;42.624;23.334;2022-08-01T02:16:19;93166.97;;;18.28;70.15
12475;BME280;6302;42.624;23.334;2022-08-01T02:18:47;93185.19;;;18.42;70.43
12475;BME280;6302;42.624;23.334;2022-08-01T02:21:20;93180.78;;;18.48;69.91
12475;BME280;6302;42.624;23.334;2022-08-01T02:23:50;93168.19;;;18.36;70.52
12475;BME280;6302;42.624;23.334;2022-08-01T02:26:18;93177.94;;;18.52;67.65
12475;BME280;6302;42.624;23.334;2022-08-01T02:28:49;93173.94;;;18.56;67.88
12475;BME280;6302;42.624;23.334;2022-08-01T02:31:20;93168.72;;;18.53;67.81
12475;BME280;6302;42.624;23.334;2022-08-01T02:33:52;93159.56;;;18.41;66.02
12475;BME280;6302;42.624;23.334;2022-08-01T02:36:24;93171.34;;;18.44;65.98
12475;BME280;6302;42.624;23.334;2022-08-01T02:38:54;93177.50;;;18.62;65.56
12475;BME280;6302;42.624;23.334;2022-08-01T02:41:24;93170.97;;;18.63;65.88
12475;BME280;6302;42.624;23.334;2022-08-01T02:43:57;93164.38;;;18.55;65.29
12475;BME280;6302;42.624;23.334;2022-08-01T02:46:29;93158.59;;;18.66;65.42
12475;BME280;6302;42.624;23.334;2022-08-01T02:49:00;93170.38;;;18.68;64.43
12475;BME280;6302;42.624;23.334;2022-08-01T02:51:30;93165.31;;;18.70;64.14
12475;BME280;6302;42.624;23.334;2022-08-01T02:53:59;93164.72;;;18.75;65.01
12475;BME280;6302;42.624;23.334;2022-08-01T02:56:29;93165.59;;;18.81;64.38
12475;BME280;6302;42.624;23.334;2022-08-01T02:59:03;93180.53;;;18.82;64.50
12475;BME280;6302;42.624;23.334;2022-08-01T03:01:32;93170.09;;;18.75;65.72
12475;BME280;6302;42.624;23.334;2022-08-01T03:04:00;93160.81;;;18.76;65.28
12475;BME280;6302;42.624;23.334;2022-08-01T03:06:30;93156.38;;;18.73;65.87
12475;BME280;6302;42.624;23.334;2022-08-01T03:08:59;93166.94;;;18.77;66.03
12475;BME280;6302;42.624;23.334;2022-08-01T03:11:27;93171.56;;;18.76;66.54
12475;BME280;6302;42.624;23.334;2022-08-01T03:13:55;93171.28;;;18.83;67.03
12475;BME280;6302;42.624;23.334;2022-08-01T03:16:24;93158.72;;;18.71;66.58
12475;BME280;6302;42.624;23.334;2022-08-01T03:18:53;93173.06;;;18.77;66.97
12475;BME280;6302;42.624;23.334;2022-08-01T03:21:23;93165.59;;;18.72;66.52
12475;BME280;6302;42.624;23.334;2022-08-01T03:23:53;93167.09;;;18.82;67.17
12475;BME280;6302;42.624;23.334;2022-08-01T03:26:26;93112.91;;;18.39;67.18
12475;BME280;6302;42.624;23.334;2022-08-01T03:28:55;93171.13;;;18.78;66.51
12475;BME280;6302;42.624;23.334;2022-08-01T03:31:24;93172.03;;;18.75;66.56
12475;BME280;6302;42.624;23.334;2022-08-01T03:33:52;93183.22;;;18.82;66.18
12475;BME280;6302;42.624;23.334;2022-08-01T03:36:21;93178.13;;;18.84;65.53
12475;BME280;6302;42.624;23.334;2022-08-01T03:38:52;93186.19;;;18.94;65.89
12475;BME280;6302;42.624;23.334;2022-08-01T03:41:21;93182.03;;;19.02;65.68
12475;BME280;6302;42.624;23.334;2022-08-01T03:43:52;93187.69;;;19.04;65.11
12475;BME280;6302;42.624;23.334;2022-08-01T03:46:26;93176.53;;;19.05;66.24
12475;BME280;6302;42.624;23.334;2022-08-01T03:48:58;93176.06;;;18.98;65.54
12475;BME280;6302;42.624;23.334;2022-08-01T03:51:27;93174.59;;;19.06;65.48
12475;BME280;6302;42.624;23.334;2022-08-01T03:54:00;93159.66;;;18.96;65.55
12475;BME280;6302;42.624;23.334;2022-08-01T03:56:27;93167.13;;;19.10;66.04
12475;BME280;6302;42.624;23.334;2022-08-01T03:58:58;93172.03;;;19.20;64.92
12475;BME280;6302;42.624;23.334;2022-08-01T04:01:25;93177.25;;;19.24;65.53
12475;BME280;6302;42.624;23.334;2022-08-01T04:03:53;93169.19;;;19.33;65.10
12475;BME280;6302;42.624;23.334;2022-08-01T04:06:21;93173.25;;;19.37;64.88
12475;BME280;6302;42.624;23.334;2022-08-01T04:08:47;93148.31;;;19.19;64.74
12475;BME280;6302;42.624;23.334;2022-08-01T04:11:24;93188.00;;;19.51;64.70
12475;BME280;6302;42.624;23.334;2022-08-01T04:13:51;93188.91;;;19.57;64.51
12475;BME280;6302;42.624;23.334;2022-08-01T04:16:19;93185.91;;;19.64;65.02
12475;BME280;6302;42.624;23.334;2022-08-01T04:18:46;93180.66;;;19.61;64.93
12475;BME280;6302;42.624;23.334;2022-08-01T04:21:13;93172.47;;;19.55;64.34
12475;BME280;6302;42.624;23.334;2022-08-01T04:23:41;93180.50;;;19.73;64.07
12475;BME280;6302;42.624;23.334;2022-08-01T04:26:10;93190.63;;;19.78;63.26
12475;BME280;6302;42.624;23.334;2022-08-01T04:28:41;93182.84;;;19.80;63.39
12475;BME280;6302;42.624;23.334;2022-08-01T04:31:10;93173.31;;;19.79;63.32
12475;BME280;6302;42.624;23.334;2022-08-01T04:33:40;93185.50;;;19.98;63.69
12475;BME280;6302;42.624;23.334;2022-08-01T04:36:10;93177.72;;;20.00;63.25
12475;BME280;6302;42.624;23.334;2022-08-01T04:38:39;93177.38;;;20.07;61.81
12475;BME280;6302;42.624;23.334;2022-08-01T04:41:06;93188.75;;;20.11;62.00
12475;BME280;6302;42.624;23.334;2022-08-01T04:43:36;93161.88;;;20.02;62.25
12475;BME280;6302;42.624;23.334;2022-08-01T04:46:05;93186.00;;;20.21;62.33
12475;BME280;6302;42.624;23.334;2022-08-01T04:48:36;93181.69;;;20.23;62.00
12475;BME280;6302;42.624;23.334;2022-08-01T04:51:03;93172.50;;;20.39;62.58
12475;BME280;6302;42.624;23.334;2022-08-01T04:53:30;93177.31;;;20.35;61.78
12475;BME280;6302;42.624;23.334;2022-08-01T04:55:58;93172.94;;;20.37;67.15
12475;BME280;6302;42.624;23.334;2022-08-01T04:58:24;93184.41;;;20.47;66.59
12475;BME280;6302;42.624;23.334;2022-08-01T05:00:51;93182.06;;;20.40;63.40
12475;BME280;6302;42.624;23.334;2022-08-01T05:03:20;93191.00;;;20.46;71.84
12475;BME280;6302;42.624;23.334;2022-08-01T05:05:46;93180.00;;;20.35;74.73
12475;BME280;6302;42.624;23.334;2022-08-01T05:08:13;93177.91;;;20.30;76.65
12475;BME280;6302;42.624;23.334;2022-08-01T05:10:42;93168.09;;;20.27;75.06
12475;BME280;6302;42.624;23.334;2022-08-01T05:13:09;93169.53;;;20.37;66.95
12475;BME280;6302;42.624;23.334;2022-08-01T05:15:36;93176.94;;;20.51;68.66
12475;BME280;6302;42.624;23.334;2022-08-01T05:18:03;93177.50;;;20.55;68.74
12475;BME280;6302;42.624;23.334;2022-08-01T05:20:31;93176.72;;;20.63;69.28
12475;BME280;6302;42.624;23.334;2022-08-01T05:22:58;93176.03;;;20.77;61.98
12475;BME280;6302;42.624;23.334;2022-08-01T05:25:25;93167.88;;;20.87;61.44
12475;BME280;6302;42.624;23.334;2022-08-01T05:27:51;93175.94;;;20.87;61.56
12475;BME280;6302;42.624;23.334;2022-08-01T05:30:18;93152.25;;;20.76;58.91
12475;BME280;6302;42.624;23.334;2022-08-01T05:32:45;93160.81;;;20.89;59.20
12475;BME280;6302;42.624;23.334;2022-08-01T05:35:12;93163.91;;;20.97;60.72
12475;BME280;6302;42.624;23.334;2022-08-01T05:37:40;93169.69;;;21.04;59.39
12475;BME280;6302;42.624;23.334;2022-08-01T05:40:08;93176.59;;;21.05;59.50
12475;BME280;6302;42.624;23.334;2022-08-01T05:42:35;93176.59;;;21.05;58.99
12475;BME280;6302;42.624;23.334;2022-08-01T05:45:03;93171.53;;;20.98;59.29
12475;BME280;6302;42.624;23.334;2022-08-01T05:47:30;93169.78;;;20.95;59.97
12475;BME280;6302;42.624;23.334;2022-08-01T05:49:57;93168.81;;;21.07;59.65
12475;BME280;6302;42.624;23.334;2022-08-01T05:52:23;93172.69;;;21.06;59.16
12475;BME280;6302;42.624;23.334;2022-08-01T05:54:52;93185.28;;;21.00;59.97
12475;BME280;6302;42.624;23.334;2022-08-01T05:57:18;93180.34;;;21.08;59.26
12475;BME280;6302;42.624;23.334;2022-08-01T05:59:46;93182.38;;;21.13;59.98
12475;BME280;6302;42.624;23.334;2022-08-01T06:02:13;93183.03;;;21.08;59.04
12475;BME280;6302;42.624;23.334;2022-08-01T06:04:39;93171.97;;;21.06;60.07
12475;BME280;6302;42.624;23.334;2022-08-01T06:07:06;93184.88;;;21.16;60.14
12475;BME280;6302;42.624;23.334;2022-08-01T06:09:33;93181.56;;;21.21;59.44
12475;BME280;6302;42.624;23.334;2022-08-01T06:12:01;93185.16;;;21.18;59.68
12475;BME280;6302;42.624;23.334;2022-08-01T06:14:28;93190.94;;;21.26;60.25
12475;BME280;6302;42.624;23.334;2022-08-01T06:16:55;93193.53;;;21.06;59.25
12475;BME280;6302;42.624;23.334;2022-08-01T06:19:22;93195.63;;;21.25;61.11
12475;BME280;6302;42.624;23.334;2022-08-01T06:21:49;93190.22;;;21.25;58.54
12475;BME280;6302;42.624;23.334;2022-08-01T06:24:15;93186.66;;;21.19;59.49
12475;BME280;6302;42.624;23.334;2022-08-01T06:26:42;93187.31;;;21.14;60.06
12475;BME280;6302;42.624;23.334;2022-08-01T06:29:10;93195.38;;;21.14;59.29
12475;BME280;6302;42.624;23.334;2022-08-01T06:31:38;93192.72;;;21.29;60.08
12475;BME280;6302;42.624;23.334;2022-08-01T06:34:05;93185.50;;;21.35;60.26
12475;BME280;6302;42.624;23.334;2022-08-01T06:36:32;93183.56;;;21.35;59.33
12475;BME280;6302;42.624;23.334;2022-08-01T06:38:58;93176.66;;;21.34;59.13
12475;BME280;6302;42.624;23.334;2022-08-01T06:41:25;93160.25;;;21.09;59.69
12475;BME280;6302;42.624;23.334;2022-08-01T06:43:52;93186.69;;;21.34;60.69
12475;BME280;6302;42.624;23.334;2022-08-01T06:46:20;93174.81;;;21.40;60.99
12475;BME280;6302;42.624;23.334;2022-08-01T06:48:47;93172.41;;;21.43;59.37
12475;BME280;6302;42.624;23.334;2022-08-01T06:51:14;93180.38;;;21.37;61.12
12475;BME280;6302;42.624;23.334;2022-08-01T06:53:43;93181.50;;;21.30;60.50
12475;BME280;6302;42.624;23.334;2022-08-01T06:56:10;93184.13;;;21.39;61.14
12475;BME280;6302;42.624;23.334;2022-08-01T06:58:37;93167.41;;;21.50;60.43
12475;BME280;6302;42.624;23.334;2022-08-01T07:01:04;93165.34;;;21.60;61.61
12475;BME280;6302;42.624;23.334;2022-08-01T07:03:33;93158.00;;;21.60;61.09
12475;BME280;6302;42.624;23.334;2022-08-01T07:06:01;93171.66;;;21.57;61.31
12475;BME280;6302;42.624;23.334;2022-08-01T07:08:27;93171.84;;;21.53;60.99
12475;BME280;6302;42.624;23.334;2022-08-01T07:10:54;93165.53;;;21.71;61.92
12475;BME280;6302;42.624;23.334;2022-08-01T07:13:24;93170.84;;;21.80;62.21
12475;BME280;6302;42.624;23.334;2022-08-01T07:15:52;93162.03;;;21.94;61.89
12475;BME280;6302;42.624;23.334;2022-08-01T07:18:19;93178.28;;;22.14;60.72
12475;BME280;6302;42.624;23.334;2022-08-01T07:20:48;93185.66;;;21.99;59.41
12475;BME280;6302;42.624;23.334;2022-08-01T07:23:15;93165.09;;;21.87;59.74
12475;BME280;6302;42.624;23.334;2022-08-01T07:25:43;93174.56;;;21.82;62.69
12475;BME280;6302;42.624;23.334;2022-08-01T07:28:10;93179.50;;;21.84;60.87
12475;BME280;6302;42.624;23.334;2022-08-01T07:30:37;93175.63;;;21.85;62.14
12475;BME280;6302;42.624;23.334;2022-08-01T07:33:03;93170.13;;;21.94;61.55
12475;BME280;6302;42.624;23.334;2022-08-01T07:35:30;93175.94;;;22.22;61.96
12475;BME280;6302;42.624;23.334;2022-08-01T07:37:58;93163.88;;;22.02;60.32
12475;BME280;6302;42.624;23.334;2022-08-01T07:40:25;93176.34;;;22.00;61.55
12475;BME280;6302;42.624;23.334;2022-08-01T07:42:52;93173.28;;;22.07;60.76
12475;BME280;6302;42.624;23.334;2022-08-01T07:45:19;93161.50;;;22.25;63.16
12475;BME280;6302;42.624;23.334;2022-08-01T07:47:46;93168.00;;;22.33;60.38
12475;BME280;6302;42.624;23.334;2022-08-01T07:50:15;93152.47;;;22.28;57.71
12475;BME280;6302;42.624;23.334;2022-08-01T07:52:42;93134.44;;;22.19;60.04
12475;BME280;6302;42.624;23.334;2022-08-01T07:55:11;93181.47;;;22.47;57.71
12475;BME280;6302;42.624;23.334;2022-08-01T07:57:38;93165.66;;;22.40;57.36
12475;BME280;6302;42.624;23.334;2022-08-01T08:00:06;93163.53;;;22.30;59.81
12475;BME280;6302;42.624;23.334;2022-08-01T08:02:34;93170.63;;;22.27;61.54
12475;BME280;6302;42.624;23.334;2022-08-01T08:05:01;93172.13;;;22.28;59.64
12475;BME280;6302;42.624;23.334;2022-08-01T08:07:29;93177.66;;;22.39;59.53
12475;BME280;6302;42.624;23.334;2022-08-01T08:09:56;93171.22;;;22.51;60.20
12475;BME280;6302;42.624;23.334;2022-08-01T08:12:24;93166.09;;;22.53;58.65
12475;BME280;6302;42.624;23.334;2022-08-01T08:14:51;93182.75;;;22.87;58.38
12475;BME280;6302;42.624;23.334;2022-08-01T08:17:18;93172.56;;;22.76;56.65
12475;BME280;6302;42.624;23.334;2022-08-01T08:19:45;93161.28;;;22.78;56.90
12475;BME280;6302;42.624;23.334;2022-08-01T08:22:12;93168.19;;;22.79;57.62
12475;BME280;6302;42.624;23.334;2022-08-01T08:24:39;93147.09;;;22.83;56.75
12475;BME280;6302;42.624;23.334;2022-08-01T08:27:05;93165.19;;;22.77;59.61
12475;BME280;6302;42.624;23.334;2022-08-01T08:29:34;93176.91;;;22.88;56.34
12475;BME280;6302;42.624;23.334;2022-08-01T08:32:01;93178.31;;;22.84;58.07
12475;BME280;6302;42.624;23.334;2022-08-01T08:34:28;93166.13;;;22.94;57.33
12475;BME280;6302;42.624;23.334;2022-08-01T08:36:56;93182.63;;;22.96;57.48
12475;BME280;6302;42.624;23.334;2022-08-01T08:39:24;93190.78;;;23.01;57.10
12475;BME280;6302;42.624;23.334;2022-08-01T08:41:51;93162.63;;;23.08;56.00
12475;BME280;6302;42.624;23.334;2022-08-01T08:44:19;93160.72;;;23.14;57.19
12475;BME280;6302;42.624;23.334;2022-08-01T08:46:50;93176.41;;;23.10;55.43
12475;BME280;6302;42.624;23.334;2022-08-01T08:49:19;93165.88;;;22.92;56.17
12475;BME280;6302;42.624;23.334;2022-08-01T08:51:49;93156.16;;;23.00;55.92
12475;BME280;6302;42.624;23.334;2022-08-01T08:54:19;93169.66;;;23.20;57.71
12475;BME280;6302;42.624;23.334;2022-08-01T08:56:46;93157.50;;;23.10;53.43
12475;BME280;6302;42.624;23.334;2022-08-01T08:59:14;93161.00;;;23.16;55.64
12475;BME280;6302;42.624;23.334;2022-08-01T09:01:41;93166.00;;;23.23;55.06
12475;BME280;6302;42.624;23.334;2022-08-01T09:04:10;93151.69;;;23.37;54.75
12475;BME280;6302;42.624;23.334;2022-08-01T09:06:38;93168.22;;;23.45;53.03
12475;BME280;6302;42.624;23.334;2022-08-01T09:09:06;93156.13;;;23.40;53.34
12475;BME280;6302;42.624;23.334;2022-08-01T09:11:33;93166.78;;;23.29;51.94
12475;BME280;6302;42.624;23.334;2022-08-01T09:14:08;93138.56;;;23.10;52.69
12475;BME280;6302;42.624;23.334;2022-08-01T09:16:37;93154.28;;;23.31;53.54
12475;BME280;6302;42.624;23.334;2022-08-01T09:19:10;93157.41;;;23.45;50.69
12475;BME280;6302;42.624;23.334;2022-08-01T09:21:38;93175.84;;;23.46;52.75
12475;BME280;6302;42.624;23.334;2022-08-01T09:24:14;93164.09;;;23.49;53.04
12475;BME280;6302;42.624;23.334;2022-08-01T09:26:42;93154.53;;;23.54;53.43
12475;BME280;6302;42.624;23.334;2022-08-01T09:29:19;93145.31;;;23.66;52.80
12475;BME280;6302;42.624;23.334;2022-08-01T09:31:46;93138.19;;;23.68;54.30
12475;BME280;6302;42.624;23.334;2022-08-01T09:34:15;93146.16;;;23.77;53.66
12475;BME280;6302;42.624;23.334;2022-08-01T09:36:49;93146.06;;;23.66;53.76
12475;BME280;6302;42.624;23.334;2022-08-01T09:39:20;93143.97;;;23.81;53.75
12475;BME280;6302;42.624;23.334;2022-08-01T09:41:47;93142.84;;;23.93;51.95
12475;BME280;6302;42.624;23.334;2022-08-01T09:44:16;93146.94;;;24.09;54.27
12475;BME280;6302;42.624;23.334;2022-08-01T09:46:51;93153.47;;;23.97;52.17
12475;BME280;6302;42.624;23.334;2022-08-01T09:49:29;93140.44;;;23.70;52.74
12475;BME280;6302;42.624;23.334;2022-08-01T09:51:57;93117.25;;;23.63;53.58
12475;BME280;6302;42.624;23.334;2022-08-01T09:54:29;93141.41;;;23.98;53.26
12475;BME280;6302;42.624;23.334;2022-08-01T09:57:08;93147.94;;;24.12;55.80
12475;BME280;6302;42.624;23.334;2022-08-01T09:59:36;93141.53;;;24.15;55.42
12475;BME280;6302;42.624;23.334;2022-08-01T10:02:06;93144.00;;;24.13;55.46
12475;BME280;6302;42.624;23.334;2022-08-01T10:04:35;93134.69;;;24.19;57.03
12475;BME280;6302;42.624;23.334;2022-08-01T10:07:06;93139.25;;;24.39;54.81
12475;BME280;6302;42.624;23.334;2022-08-01T10:09:35;93136.34;;;24.48;54.64
12475;BME280;6302;42.624;23.334;2022-08-01T10:12:03;93142.09;;;24.67;52.65
12475;BME280;6302;42.624;23.334;2022-08-01T10:14:31;93133.78;;;24.76;51.35
12475;BME280;6302;42.624;23.334;2022-08-01T10:17:00;93118.88;;;24.54;52.36
12475;BME280;6302;42.624;23.334;2022-08-01T10:19:30;93132.88;;;24.90;51.80
12475;BME280;6302;42.624;23.334;2022-08-01T10:22:00;93116.44;;;24.51;53.37
12475;BME280;6302;42.624;23.334;2022-08-01T10:24:29;93122.31;;;24.49;52.67
12475;BME280;6302;42.624;23.334;2022-08-01T10:26:58;93122.81;;;24.48;52.20
12475;BME280;6302;42.624;23.334;2022-08-01T10:29:31;93118.44;;;24.56;52.52
12475;BME280;6302;42.624;23.334;2022-08-01T10:32:01;93114.22;;;24.55;53.18
12475;BME280;6302;42.624;23.334;2022-08-01T10:34:29;93125.94;;;24.78;53.78
12475;BME280;6302;42.624;23.334;2022-08-01T10:36:58;93123.53;;;24.96;50.00
12475;BME280;6302;42.624;23.334;2022-08-01T10:39:25;93131.03;;;25.23;48.21
12475;BME280;6302;42.624;23.334;2022-08-01T10:41:55;93115.03;;;25.26;48.51
12475;BME280;6302;42.624;23.334;2022-08-01T10:44:23;93121.44;;;25.34;49.62
12475;BME280;6302;42.624;23.334;2022-08-01T10:46:54;93108.13;;;25.25;48.82
12475;BME280;6302;42.624;23.334;2022-08-01T10:49:23;93115.53;;;25.30;46.91
12475;BME280;6302;42.624;23.334;2022-08-01T10:51:53;93106.41;;;25.33;46.64
12475;BME280;6302;42.624;23.334;2022-08-01T10:54:24;93113.00;;;25.09;47.03
12475;BME280;6302;42.624;23.334;2022-08-01T10:56:51;93105.63;;;25.15;45.77
12475;BME280;6302;42.624;23.334;2022-08-01T10:59:21;93119.72;;;25.31;48.16
12475;BME280;6302;42.624;23.334;2022-08-01T11:01:56;93111.97;;;25.01;46.09
12475;BME280;6302;42.624;23.334;2022-08-01T11:04:33;93088.28;;;24.85;46.35
12475;BME280;6302;42.624;23.334;2022-08-01T11:07:04;93108.28;;;24.93;47.55
12475;BME280;6302;42.624;23.334;2022-08-01T11:09:42;93114.97;;;25.03;49.05
12475;BME280;6302;42.624;23.334;2022-08-01T11:12:10;93110.25;;;25.04;49.44
12475;BME280;6302;42.624;23.334;2022-08-01T11:17:43;93110.56;;;25.23;47.56
12475;BME280;6302;42.624;23.334;2022-08-01T11:20:14;93101.16;;;25.07;48.33
12475;BME280;6302;42.624;23.334;2022-08-01T11:26:21;93099.25;;;25.30;48.08
12475;BME280;6302;42.624;23.334;2022-08-01T11:29:17;93101.25;;;25.46;47.61
12475;BME280;6302;42.624;23.334;2022-08-01T11:31:44;93088.19;;;25.44;47.31
12475;BME280;6302;42.624;23.334;2022-08-01T11:34:11;93071.38;;;25.23;47.43
12475;BME280;6302;42.624;23.334;2022-08-01T11:36:38;93079.22;;;25.16;47.72
12475;BME280;6302;42.624;23.334;2022-08-01T11:39:20;93104.44;;;25.28;48.69
12475;BME280;6302;42.624;23.334;2022-08-01T11:41:48;93094.56;;;25.41;48.08
12475;BME280;6302;42.624;23.334;2022-08-01T11:44:21;93094.88;;;25.60;48.13
12475;BME280;6302;42.624;23.334;2022-08-01T11:47:01;93094.38;;;25.56;47.02
12475;BME280;6302;42.624;23.334;2022-08-01T11:49:44;93092.66;;;25.53;48.17
12475;BME280;6302;42.624;23.334;2022-08-01T11:52:13;93098.56;;;25.68;48.74
12475;BME280;6302;42.624;23.334;2022-08-01T11:54:43;93104.03;;;25.62;46.55
12475;BME280;6302;42.624;23.334;2022-08-01T11:57:13;93088.69;;;25.54;47.79
12475;BME280;6302;42.624;23.334;2022-08-01T11:59:42;93100.94;;;25.21;48.15
12475;BME280;6302;42.624;23.334;2022-08-01T12:02:16;93101.41;;;25.03;49.02
12475;BME280;6302;42.624;23.334;2022-08-01T12:04:48;93089.28;;;24.99;48.57
12475;BME280;6302;42.624;23.334;2022-08-01T12:07:16;93066.59;;;24.85;49.29
12475;BME280;6302;42.624;23.334;2022-08-01T12:09:43;93097.75;;;25.17;49.51
12475;BME280;6302;42.624;23.334;2022-08-01T12:12:14;93077.97;;;25.00;48.99
12475;BME280;6302;42.624;23.334;2022-08-01T12:14:43;93086.38;;;25.13;48.72
12475;BME280;6302;42.624;23.334;2022-08-01T12:17:10;93099.22;;;25.24;49.18
12475;BME280;6302;42.624;23.334;2022-08-01T12:19:37;93103.16;;;25.12;48.51
12475;BME280;6302;42.624;23.334;2022-08-01T12:22:10;93097.97;;;25.14;49.41
12475;BME280;6302;42.624;23.334;2022-08-01T12:24:38;93094.78;;;25.15;48.40
12475;BME280;6302;42.624;23.334;2022-08-01T12:27:06;93083.94;;;25.27;48.66
12475;BME280;6302;42.624;23.334;2022-08-01T12:29:37;93083.97;;;25.38;50.12
12475;BME280;6302;42.624;23.334;2022-08-01T12:32:20;93082.25;;;25.40;49.38
12475;BME280;6302;42.624;23.334;2022-08-01T12:34:47;93083.22;;;25.37;48.21
12475;BME280;6302;42.624;23.334;2022-08-01T12:37:14;93097.59;;;25.60;48.42
12475;BME280;6302;42.624;23.334;2022-08-01T12:39:41;93090.66;;;25.53;48.75
12475;BME280;6302;42.624;23.334;2022-08-01T12:42:08;93069.22;;;25.61;50.15
12475;BME280;6302;42.624;23.334;2022-08-01T12:44:38;93028.97;;;25.32;47.97
12475;BME280;6302;42.624;23.334;2022-08-01T12:47:06;93089.69;;;25.73;47.07
12475;BME280;6302;42.624;23.334;2022-08-01T12:49:35;93076.63;;;25.49;47.98
12475;BME280;6302;42.624;23.334;2022-08-01T12:52:02;93073.16;;;25.71;49.44
12475;BME280;6302;42.624;23.334;2022-08-01T12:54:29;93083.53;;;25.67;47.06
12475;BME280;6302;42.624;23.334;2022-08-01T12:56:56;93088.94;;;25.56;47.62
12475;BME280;6302;42.624;23.334;2022-08-01T12:59:25;93086.00;;;25.54;47.08
12475;BME280;6302;42.624;23.334;2022-08-01T13:01:54;93084.28;;;25.56;47.51
12475;BME280;6302;42.624;23.334;2022-08-01T13:04:22;93089.19;;;25.63;47.07
12475;BME280;6302;42.624;23.334;2022-08-01T13:06:53;93089.22;;;25.52;47.04
12475;BME280;6302;42.624;23.334;2022-08-01T13:09:20;93083.53;;;25.67;48.09
12475;BME280;6302;42.624;23.334;2022-08-01T13:11:47;93091.44;;;25.65;47.10
12475;BME280;6302;42.624;23.334;2022-08-01T13:14:27;93080.59;;;25.65;46.43
12475;BME280;6302;42.624;23.334;2022-08-01T13:16:55;93086.00;;;25.76;46.46
12475;BME280;6302;42.624;23.334;2022-08-01T13:19:43;93089.72;;;25.67;45.72